createdAt,value
2019-03-18T00:03:50.941Z,98533.33
2019-03-18T00:13:51.843Z,98548.90
2019-03-18T00:23:52.497Z,98645.95
2019-03-18T00:33:53.173Z,98562.30
2019-03-18T00:43:54.103Z,98565.04
2019-03-18T00:53:54.984Z,98563.86
2019-03-18T01:03:55.637Z,98571.99
2019-03-18T01:13:56.325Z,98562.25
2019-03-18T01:23:57.011Z,98567.59
2019-03-18T01:33:57.620Z,98563.20
2019-03-18T01:43:58.298Z,98559.66
2019-03-18T01:53:59.267Z,98570.33
2019-03-18T02:03:59.875Z,98575.27
2019-03-18T02:14:00.921Z,98587.33
2019-03-18T02:24:01.648Z,98582.70
2019-03-18T02:34:02.831Z,98597.58
2019-03-18T02:44:03.550Z,98604.34
2019-03-18T02:54:04.186Z,98589.34
2019-03-18T03:04:04.884Z,98605.64
2019-03-18T03:14:05.561Z,98602.59
2019-03-18T03:24:06.236Z,98619.23
2019-03-18T03:34:12.928Z,98619.55
2019-03-18T03:44:09.555Z,98624.70
2019-03-18T03:54:10.234Z,98626.88
2019-03-18T04:04:10.835Z,98635.38
2019-03-18T04:14:11.507Z,98643.81
2019-03-18T04:24:12.415Z,98646.03
2019-03-18T04:34:13.038Z,98658.78
2019-03-18T04:44:13.763Z,98667.68
2019-03-18T04:54:14.444Z,98686.23
2019-03-18T05:04:15.360Z,98695.56
2019-03-18T05:14:16.249Z,98696.11
2019-03-18T05:24:16.905Z,98716.76
2019-03-18T05:34:17.593Z,98706.59
2019-03-18T05:44:18.224Z,98717.88
2019-03-18T05:54:18.854Z,98735.70
2019-03-18T06:04:19.547Z,98751.31
2019-03-18T06:14:20.457Z,98750.25
2019-03-18T06:24:21.133Z,98766.31
2019-03-18T06:34:22.047Z,98757.75
2019-03-18T06:44:22.748Z,98781.83
2019-03-18T06:54:23.616Z,98802.56
2019-03-18T07:04:24.512Z,98804.09
2019-03-18T07:14:25.399Z,98804.71
2019-03-18T07:24:26.037Z,98833.91
2019-03-18T07:34:26.963Z,98842.90
2019-03-18T07:44:27.593Z,98861.03
2019-03-18T07:54:33.027Z,98878.34
2019-03-18T08:04:37.444Z,98903.75
2019-03-18T08:14:33.709Z,98910.92
2019-03-18T08:24:34.365Z,98912.94
2019-03-18T08:34:35.000Z,98951.47
2019-03-18T08:44:35.622Z,98971.02
2019-03-18T08:54:36.254Z,99000.98
2019-03-18T09:04:36.989Z,99014.97
2019-03-18T09:14:37.899Z,99016.14
2019-03-18T09:24:38.779Z,99020.75
2019-03-18T09:34:39.695Z,99014.17
2019-03-18T09:44:40.327Z,99033.39
2019-03-18T09:54:41.169Z,99042.17
2019-03-18T10:04:42.134Z,99028.13
2019-03-18T10:14:42.767Z,99040.41
2019-03-18T10:24:43.709Z,99052.55
2019-03-18T10:34:44.621Z,99068.63
2019-03-18T10:44:45.510Z,99067.16
2019-03-18T10:54:46.152Z,99073.75
2019-03-18T11:04:46.873Z,99075.06
2019-03-18T11:14:47.754Z,99075.03
2019-03-18T11:24:48.648Z,99112.03
2019-03-18T11:34:50.174Z,99099.83
2019-03-18T11:44:52.020Z,99110.38
2019-03-18T11:54:52.748Z,99116.77
2019-03-18T12:04:53.406Z,99114.30
2019-03-18T12:14:54.102Z,99121.31
2019-03-18T12:24:54.977Z,99148.55
2019-03-18T12:34:55.607Z,99161.59
2019-03-18T12:44:57.182Z,99160.59
2019-03-18T12:54:58.129Z,99164.24
2019-03-18T13:04:58.979Z,99157.12
2019-03-18T13:14:59.613Z,99143.20
2019-03-18T13:25:00.368Z,99140.80
2019-03-18T13:35:02.116Z,99118.23
2019-03-18T13:45:08.214Z,99139.35
2019-03-18T13:55:09.154Z,99128.23
2019-03-18T14:05:09.903Z,99129.05
2019-03-18T14:15:19.261Z,99145.52
2019-03-18T14:25:20.047Z,99129.76
2019-03-18T14:35:24.027Z,99152.75
2019-03-18T14:45:24.724Z,99198.84
2019-03-18T14:55:26.441Z,99211.42
2019-03-18T15:05:27.124Z,99189.46
2019-03-18T15:15:28.080Z,99171.67
2019-03-18T15:25:30.775Z,99165.19
2019-03-18T15:35:31.523Z,99173.20
2019-03-18T15:45:32.543Z,99174.44
2019-03-18T15:55:33.558Z,99182.84
2019-03-18T16:05:34.201Z,99177.11
2019-03-18T16:15:34.892Z,99181.86
2019-03-18T16:25:35.755Z,99209.05
2019-03-18T16:35:36.473Z,99212.55
2019-03-18T16:45:37.407Z,99231.84
2019-03-18T16:55:41.733Z,99258.62
2019-03-18T17:05:42.677Z,99272.99
2019-03-18T17:15:44.131Z,99284.12
2019-03-18T17:25:45.045Z,99290.75
2019-03-18T17:35:46.035Z,99314.15
2019-03-18T17:45:47.990Z,99320.99
2019-03-18T17:55:48.916Z,99328.97
2019-03-18T18:05:51.529Z,99344.39
2019-03-18T18:15:52.398Z,99344.92
2019-03-18T18:25:53.092Z,99365.75
2019-03-18T18:35:53.778Z,99375.63
2019-03-18T18:45:54.714Z,99398.29
2019-03-18T18:55:55.354Z,99401.94
2019-03-18T19:05:56.261Z,99411.78
2019-03-18T19:15:56.965Z,99423.05
2019-03-18T19:25:57.943Z,99424.36
2019-03-18T19:35:58.842Z,99433.67
2019-03-18T19:45:59.484Z,99439.75
2019-03-18T19:56:00.426Z,99450.91
2019-03-18T20:06:01.343Z,99467.64
2019-03-18T20:16:02.472Z,99479.83
2019-03-18T20:26:03.492Z,99485.33
2019-03-18T20:36:04.342Z,99499.35
2019-03-18T20:46:08.891Z,99511.98
2019-03-18T20:56:09.767Z,99524.66
2019-03-18T21:06:21.916Z,99525.00
2019-03-18T21:16:29.240Z,99540.73
2019-03-18T21:26:30.133Z,99545.03
2019-03-18T21:36:37.865Z,99562.84
2019-03-18T21:46:34.633Z,99574.61
2019-03-18T21:56:36.437Z,99592.43
2019-03-18T22:06:37.238Z,99605.34
2019-03-18T22:16:42.808Z,99617.15
2019-03-18T22:26:43.772Z,99610.09
2019-03-18T22:36:47.383Z,99610.07
2019-03-18T22:46:48.598Z,99622.52
2019-03-18T22:56:50.102Z,99627.11
2019-03-18T23:06:52.448Z,99632.77
2019-03-18T23:16:53.342Z,99626.17
2019-03-18T23:26:54.073Z,99627.05
2019-03-18T23:36:55.078Z,99634.09
2019-03-18T23:46:56.485Z,99638.64
2019-03-18T23:56:57.380Z,99648.05
